sensor_id;sensor_type;location;lat;lon;timestamp;temperature;humidity
27384;DHT22;14851;51.166;4.760;2022-08-19T00:00:23;17.20;99.90
27384;DHT22;14851;51.166;4.760;2022-08-19T00:02:50;17.20;99.90
27384;DHT22;14851;51.166;4.760;2022-08-19T00:05:21;17.30;99.90
27384;DHT22;14851;51.166;4.760;2022-08-19T00:07:51;17.20;99.90
27384;DHT22;14851;51.166;4.760;2022-08-19T00:10:18;17.20;99.90
27384;DHT22;14851;51.166;4.760;2022-08-19T00:12:45;17.20;99.90
27384;DHT22;14851;51.166;4.760;2022-08-19T00:15:15;17.10;99.90
27384;DHT22;14851;51.166;4.760;2022-08-19T00:17:43;17.30;99.90
27384;DHT22;14851;51.166;4.760;2022-08-19T00:20:11;17.40;99.90
27384;DHT22;14851;51.166;4.760;2022-08-19T00:22:38;17.50;99.90
27384;DHT22;14851;51.166;4.760;2022-08-19T00:25:07;17.50;99.90
27384;DHT22;14851;51.166;4.760;2022-08-19T00:27:34;17.40;99.90
27384;DHT22;14851;51.166;4.760;2022-08-19T00:30:02;17.70;99.90
27384;DHT22;14851;51.166;4.760;2022-08-19T00:32:29;17.50;99.90
27384;DHT22;14851;51.166;4.760;2022-08-19T00:34:56;17.40;99.90
27384;DHT22;14851;51.166;4.760;2022-08-19T00:37:24;17.30;99.90
27384;DHT22;14851;51.166;4.760;2022-08-19T00:39:53;17.30;99.90
27384;DHT22;14851;51.166;4.760;2022-08-19T00:42:20;17.20;99.90
27384;DHT22;14851;51.166;4.760;2022-08-19T00:44:48;17.20;99.90
27384;DHT22;14851;51.166;4.760;2022-08-19T00:47:15;17.20;99.90
27384;DHT22;14851;51.166;4.760;2022-08-19T00:49:48;17.20;99.90
27384;DHT22;14851;51.166;4.760;2022-08-19T00:52:24;17.30;99.90
27384;DHT22;14851;51.166;4.760;2022-08-19T00:54:54;17.40;99.90
27384;DHT22;14851;51.166;4.760;2022-08-19T00:57:35;17.40;99.90
27384;DHT22;14851;51.166;4.760;2022-08-19T01:00:06;17.40;99.90
27384;DHT22;14851;51.166;4.760;2022-08-19T01:02:35;17.30;99.90
27384;DHT22;14851;51.166;4.760;2022-08-19T01:05:04;17.20;99.90
27384;DHT22;14851;51.166;4.760;2022-08-19T01:07:31;17.10;99.90
27384;DHT22;14851;51.166;4.760;2022-08-19T01:09:59;17.10;99.90
27384;DHT22;14851;51.166;4.760;2022-08-19T01:12:26;17.30;99.90
27384;DHT22;14851;51.166;4.760;2022-08-19T01:14:52;17.30;99.90
27384;DHT22;14851;51.166;4.760;2022-08-19T01:17:20;17.40;99.90
27384;DHT22;14851;51.166;4.760;2022-08-19T01:19:49;17.40;99.90
27384;DHT22;14851;51.166;4.760;2022-08-19T01:24:52;17.50;99.90
27384;DHT22;14851;51.166;4.760;2022-08-19T01:27:19;17.50;99.90
27384;DHT22;14851;51.166;4.760;2022-08-19T01:29:48;17.50;99.90
27384;DHT22;14851;51.166;4.760;2022-08-19T01:32:16;17.50;99.90
27384;DHT22;14851;51.166;4.760;2022-08-19T01:34:43;17.50;99.90
27384;DHT22;14851;51.166;4.760;2022-08-19T01:37:14;17.60;99.90
27384;DHT22;14851;51.166;4.760;2022-08-19T01:39:41;17.40;99.90
27384;DHT22;14851;51.166;4.760;2022-08-19T01:42:10;17.50;99.90
27384;DHT22;14851;51.166;4.760;2022-08-19T01:44:39;17.50;99.90
27384;DHT22;14851;51.166;4.760;2022-08-19T01:47:11;17.50;99.90
27384;DHT22;14851;51.166;4.760;2022-08-19T01:49:37;17.50;99.90
27384;DHT22;14851;51.166;4.760;2022-08-19T01:52:05;17.50;99.90
27384;DHT22;14851;51.166;4.760;2022-08-19T01:54:34;17.50;99.90
27384;DHT22;14851;51.166;4.760;2022-08-19T01:57:07;17.60;99.90
27384;DHT22;14851;51.166;4.760;2022-08-19T01:59:34;17.60;99.90
27384;DHT22;14851;51.166;4.760;2022-08-19T02:02:04;17.60;99.90
27384;DHT22;14851;51.166;4.760;2022-08-19T02:04:36;17.70;99.90
27384;DHT22;14851;51.166;4.760;2022-08-19T02:07:07;17.70;99.90
27384;DHT22;14851;51.166;4.760;2022-08-19T02:09:34;17.60;99.90
27384;DHT22;14851;51.166;4.760;2022-08-19T02:12:02;17.70;99.90
27384;DHT22;14851;51.166;4.760;2022-08-19T02:14:28;17.60;99.90
27384;DHT22;14851;51.166;4.760;2022-08-19T02:16:57;17.50;99.90
27384;DHT22;14851;51.166;4.760;2022-08-19T02:19:25;17.50;99.90
27384;DHT22;14851;51.166;4.760;2022-08-19T02:21:51;17.60;99.90
27384;DHT22;14851;51.166;4.760;2022-08-19T02:24:18;17.60;99.90
27384;DHT22;14851;51.166;4.760;2022-08-19T02:26:44;17.50;99.90
27384;DHT22;14851;51.166;4.760;2022-08-19T02:29:10;17.50;99.90
27384;DHT22;14851;51.166;4.760;2022-08-19T02:31:36;17.50;99.90
27384;DHT22;14851;51.166;4.760;2022-08-19T02:34:04;17.40;99.90
27384;DHT22;14851;51.166;4.760;2022-08-19T02:36:30;17.50;99.90
27384;DHT22;14851;51.166;4.760;2022-08-19T02:38:57;17.50;99.90
27384;DHT22;14851;51.166;4.760;2022-08-19T02:41:28;17.50;99.90
27384;DHT22;14851;51.166;4.760;2022-08-19T02:43:57;17.70;99.90
27384;DHT22;14851;51.166;4.760;2022-08-19T02:46:28;17.60;99.90
27384;DHT22;14851;51.166;4.760;2022-08-19T02:48:57;17.60;99.90
27384;DHT22;14851;51.166;4.760;2022-08-19T02:51:30;17.60;99.90
27384;DHT22;14851;51.166;4.760;2022-08-19T02:53:58;17.60;99.90
27384;DHT22;14851;51.166;4.760;2022-08-19T02:56:26;17.50;99.90
27384;DHT22;14851;51.166;4.760;2022-08-19T02:58:54;17.50;99.90
27384;DHT22;14851;51.166;4.760;2022-08-19T03:01:28;17.40;99.90
27384;DHT22;14851;51.166;4.760;2022-08-19T03:03:56;17.40;99.90
27384;DHT22;14851;51.166;4.760;2022-08-19T03:06:24;17.40;99.90
27384;DHT22;14851;51.166;4.760;2022-08-19T03:08:51;17.40;99.90
27384;DHT22;14851;51.166;4.760;2022-08-19T03:11:28;17.40;99.90
27384;DHT22;14851;51.166;4.760;2022-08-19T03:13:55;17.40;99.90
27384;DHT22;14851;51.166;4.760;2022-08-19T03:16:39;17.40;99.90
27384;DHT22;14851;51.166;4.760;2022-08-19T03:19:06;17.40;99.90
27384;DHT22;14851;51.166;4.760;2022-08-19T03:21:33;17.30;99.90
27384;DHT22;14851;51.166;4.760;2022-08-19T03:24:05;17.30;99.90
27384;DHT22;14851;51.166;4.760;2022-08-19T03:26:31;17.30;99.90
27384;DHT22;14851;51.166;4.760;2022-08-19T03:29:02;17.30;99.90
27384;DHT22;14851;51.166;4.760;2022-08-19T03:31:29;17.20;99.90
27384;DHT22;14851;51.166;4.760;2022-08-19T03:33:56;17.20;99.90
27384;DHT22;14851;51.166;4.760;2022-08-19T03:36:24;17.20;99.90
27384;DHT22;14851;51.166;4.760;2022-08-19T03:38:53;17.10;99.90
27384;DHT22;14851;51.166;4.760;2022-08-19T03:41:22;17.10;99.90
27384;DHT22;14851;51.166;4.760;2022-08-19T03:43:50;16.90;99.90
27384;DHT22;14851;51.166;4.760;2022-08-19T03:46:22;16.90;99.90
27384;DHT22;14851;51.166;4.760;2022-08-19T03:48:49;17.00;99.90
27384;DHT22;14851;51.166;4.760;2022-08-19T03:51:31;17.00;99.90
27384;DHT22;14851;51.166;4.760;2022-08-19T03:54:00;17.00;99.90
27384;DHT22;14851;51.166;4.760;2022-08-19T03:56:27;16.90;99.90
27384;DHT22;14851;51.166;4.760;2022-08-19T03:58:56;16.80;99.90
27384;DHT22;14851;51.166;4.760;2022-08-19T04:01:24;16.80;99.90
27384;DHT22;14851;51.166;4.760;2022-08-19T04:03:52;16.90;99.90
27384;DHT22;14851;51.166;4.760;2022-08-19T04:06:23;16.90;99.90
27384;DHT22;14851;51.166;4.760;2022-08-19T04:08:52;16.90;99.90
27384;DHT22;14851;51.166;4.760;2022-08-19T04:11:22;16.90;99.90
27384;DHT22;14851;51.166;4.760;2022-08-19T04:13:51;16.90;99.90
27384;DHT22;14851;51.166;4.760;2022-08-19T04:16:24;16.90;99.90
27384;DHT22;14851;51.166;4.760;2022-08-19T04:18:50;16.80;99.90
27384;DHT22;14851;51.166;4.760;2022-08-19T04:21:23;16.80;99.90
27384;DHT22;14851;51.166;4.760;2022-08-19T04:23:50;16.80;99.90
27384;DHT22;14851;51.166;4.760;2022-08-19T04:26:22;16.80;99.90
27384;DHT22;14851;51.166;4.760;2022-08-19T04:28:51;16.80;99.90
27384;DHT22;14851;51.166;4.760;2022-08-19T04:31:22;16.60;99.90
27384;DHT22;14851;51.166;4.760;2022-08-19T04:34:03;16.60;99.90
27384;DHT22;14851;51.166;4.760;2022-08-19T04:36:36;16.50;99.90
27384;DHT22;14851;51.166;4.760;2022-08-19T04:39:09;16.50;99.90
27384;DHT22;14851;51.166;4.760;2022-08-19T04:41:38;16.50;99.90
27384;DHT22;14851;51.166;4.760;2022-08-19T04:44:23;16.50;99.90
27384;DHT22;14851;51.166;4.760;2022-08-19T04:46:50;16.60;99.90
27384;DHT22;14851;51.166;4.760;2022-08-19T04:49:18;16.50;99.90
27384;DHT22;14851;51.166;4.760;2022-08-19T04:51:45;16.60;99.90
27384;DHT22;14851;51.166;4.760;2022-08-19T04:54:14;16.60;99.90
27384;DHT22;14851;51.166;4.760;2022-08-19T04:56:40;16.60;99.90
27384;DHT22;14851;51.166;4.760;2022-08-19T04:59:10;16.60;99.90
27384;DHT22;14851;51.166;4.760;2022-08-19T05:01:37;16.50;99.90
27384;DHT22;14851;51.166;4.760;2022-08-19T05:04:05;16.60;99.90
27384;DHT22;14851;51.166;4.760;2022-08-19T05:06:32;16.60;99.90
27384;DHT22;14851;51.166;4.760;2022-08-19T05:09:03;16.60;99.90
27384;DHT22;14851;51.166;4.760;2022-08-19T05:11:34;16.60;99.90
27384;DHT22;14851;51.166;4.760;2022-08-19T05:14:02;16.50;99.90
27384;DHT22;14851;51.166;4.760;2022-08-19T05:16:28;16.40;99.90
27384;DHT22;14851;51.166;4.760;2022-08-19T05:18:56;16.40;99.90
27384;DHT22;14851;51.166;4.760;2022-08-19T05:21:42;16.40;99.90
27384;DHT22;14851;51.166;4.760;2022-08-19T05:24:27;16.40;99.90
27384;DHT22;14851;51.166;4.760;2022-08-19T05:26:54;16.40;99.90
27384;DHT22;14851;51.166;4.760;2022-08-19T05:29:23;16.50;99.90
27384;DHT22;14851;51.166;4.760;2022-08-19T05:31:51;16.50;99.90
27384;DHT22;14851;51.166;4.760;2022-08-19T05:34:20;16.40;99.90
27384;DHT22;14851;51.166;4.760;2022-08-19T05:36:50;16.40;99.90
27384;DHT22;14851;51.166;4.760;2022-08-19T05:39:19;16.40;99.90
27384;DHT22;14851;51.166;4.760;2022-08-19T05:41:48;16.30;99.90
27384;DHT22;14851;51.166;4.760;2022-08-19T05:44:15;16.30;99.90
27384;DHT22;14851;51.166;4.760;2022-08-19T05:46:48;16.40;99.90
27384;DHT22;14851;51.166;4.760;2022-08-19T05:49:15;16.30;99.90
27384;DHT22;14851;51.166;4.760;2022-08-19T05:51:42;16.50;99.90
27384;DHT22;14851;51.166;4.760;2022-08-19T05:54:08;16.50;99.90
27384;DHT22;14851;51.166;4.760;2022-08-19T05:56:35;16.60;99.90
27384;DHT22;14851;51.166;4.760;2022-08-19T05:59:04;16.70;99.90
27384;DHT22;14851;51.166;4.760;2022-08-19T06:01:34;16.70;99.90
27384;DHT22;14851;51.166;4.760;2022-08-19T06:04:01;17.10;99.90
27384;DHT22;14851;51.166;4.760;2022-08-19T06:06:27;17.50;99.90
27384;DHT22;14851;51.166;4.760;2022-08-19T06:08:55;17.30;99.90
27384;DHT22;14851;51.166;4.760;2022-08-19T06:14:08;17.30;99.90
27384;DHT22;14851;51.166;4.760;2022-08-19T06:16:36;17.50;99.90
27384;DHT22;14851;51.166;4.760;2022-08-19T06:19:05;17.70;99.90
27384;DHT22;14851;51.166;4.760;2022-08-19T06:21:32;17.70;99.90
27384;DHT22;14851;51.166;4.760;2022-08-19T06:23:59;17.70;99.90
27384;DHT22;14851;51.166;4.760;2022-08-19T06:26:26;17.50;99.90
27384;DHT22;14851;51.166;4.760;2022-08-19T06:28:53;17.90;99.90
27384;DHT22;14851;51.166;4.760;2022-08-19T06:31:25;18.10;99.90
27384;DHT22;14851;51.166;4.760;2022-08-19T06:33:52;18.30;99.90
27384;DHT22;14851;51.166;4.760;2022-08-19T06:36:24;18.30;99.90
27384;DHT22;14851;51.166;4.760;2022-08-19T06:38:56;18.10;99.90
27384;DHT22;14851;51.166;4.760;2022-08-19T06:41:27;17.90;99.90
27384;DHT22;14851;51.166;4.760;2022-08-19T06:43:57;17.90;99.90
27384;DHT22;14851;51.166;4.760;2022-08-19T06:46:23;17.90;99.90
27384;DHT22;14851;51.166;4.760;2022-08-19T06:48:53;17.90;99.90
27384;DHT22;14851;51.166;4.760;2022-08-19T06:51:23;18.10;99.90
27384;DHT22;14851;51.166;4.760;2022-08-19T06:53:52;18.10;99.90
27384;DHT22;14851;51.166;4.760;2022-08-19T06:56:27;18.50;99.90
27384;DHT22;14851;51.166;4.760;2022-08-19T06:59:05;18.70;99.90
27384;DHT22;14851;51.166;4.760;2022-08-19T07:01:38;18.90;99.90
27384;DHT22;14851;51.166;4.760;2022-08-19T07:04:09;18.90;99.90
27384;DHT22;14851;51.166;4.760;2022-08-19T07:06:38;18.90;99.90
27384;DHT22;14851;51.166;4.760;2022-08-19T07:09:08;19.20;99.90
27384;DHT22;14851;51.166;4.760;2022-08-19T07:11:36;19.20;99.90
27384;DHT22;14851;51.166;4.760;2022-08-19T07:14:05;19.70;99.90
27384;DHT22;14851;51.166;4.760;2022-08-19T07:16:32;19.50;99.90
27384;DHT22;14851;51.166;4.760;2022-08-19T07:18:58;19.60;99.90
27384;DHT22;14851;51.166;4.760;2022-08-19T07:21:27;19.50;99.90
27384;DHT22;14851;51.166;4.760;2022-08-19T07:23:58;19.20;99.90
27384;DHT22;14851;51.166;4.760;2022-08-19T07:26:25;19.10;99.90
27384;DHT22;14851;51.166;4.760;2022-08-19T07:28:51;19.00;99.90
27384;DHT22;14851;51.166;4.760;2022-08-19T07:31:21;19.30;99.90
27384;DHT22;14851;51.166;4.760;2022-08-19T07:33:49;20.00;99.90
27384;DHT22;14851;51.166;4.760;2022-08-19T07:36:20;19.80;99.90
27384;DHT22;14851;51.166;4.760;2022-08-19T07:38:48;19.40;99.90
27384;DHT22;14851;51.166;4.760;2022-08-19T07:41:18;19.90;99.90
27384;DHT22;14851;51.166;4.760;2022-08-19T07:43:45;19.80;99.90
27384;DHT22;14851;51.166;4.760;2022-08-19T07:46:12;19.90;99.90
27384;DHT22;14851;51.166;4.760;2022-08-19T07:48:40;20.10;99.90
27384;DHT22;14851;51.166;4.760;2022-08-19T07:51:08;19.70;99.90
27384;DHT22;14851;51.166;4.760;2022-08-19T07:53:36;19.80;99.90
27384;DHT22;14851;51.166;4.760;2022-08-19T07:56:05;20.00;99.90
27384;DHT22;14851;51.166;4.760;2022-08-19T07:58:34;20.20;99.90
27384;DHT22;14851;51.166;4.760;2022-08-19T08:01:01;19.90;99.90
27384;DHT22;14851;51.166;4.760;2022-08-19T08:03:28;20.10;99.90
27384;DHT22;14851;51.166;4.760;2022-08-19T08:06:14;20.00;99.90
27384;DHT22;14851;51.166;4.760;2022-08-19T08:09:01;19.60;99.90
27384;DHT22;14851;51.166;4.760;2022-08-19T08:11:47;19.50;99.90
27384;DHT22;14851;51.166;4.760;2022-08-19T08:14:26;19.50;99.90
27384;DHT22;14851;51.166;4.760;2022-08-19T08:16:53;19.90;99.90
27384;DHT22;14851;51.166;4.760;2022-08-19T08:19:23;20.00;99.90
27384;DHT22;14851;51.166;4.760;2022-08-19T08:21:51;20.10;99.90
27384;DHT22;14851;51.166;4.760;2022-08-19T08:24:18;20.40;99.90
27384;DHT22;14851;51.166;4.760;2022-08-19T08:26:44;20.40;99.90
27384;DHT22;14851;51.166;4.760;2022-08-19T08:29:14;21.00;99.90
27384;DHT22;14851;51.166;4.760;2022-08-19T08:31:43;21.00;99.90
27384;DHT22;14851;51.166;4.760;2022-08-19T08:34:11;20.80;99.90
27384;DHT22;14851;51.166;4.760;2022-08-19T08:36:40;20.70;99.90
27384;DHT22;14851;51.166;4.760;2022-08-19T08:39:09;20.30;99.90
27384;DHT22;14851;51.166;4.760;2022-08-19T08:42:01;19.90;99.90
27384;DHT22;14851;51.166;4.760;2022-08-19T08:47:04;19.90;99.90
27384;DHT22;14851;51.166;4.760;2022-08-19T08:49:51;20.20;99.90
27384;DHT22;14851;51.166;4.760;2022-08-19T08:52:35;20.30;99.90
27384;DHT22;14851;51.166;4.760;2022-08-19T08:55:11;20.80;99.90
27384;DHT22;14851;51.166;4.760;2022-08-19T08:58:02;20.80;99.90
27384;DHT22;14851;51.166;4.760;2022-08-19T09:00:35;20.60;99.90
27384;DHT22;14851;51.166;4.760;2022-08-19T09:03:05;20.90;99.90
27384;DHT22;14851;51.166;4.760;2022-08-19T09:05:51;21.10;99.90
27384;DHT22;14851;51.166;4.760;2022-08-19T09:08:45;21.20;99.90
27384;DHT22;14851;51.166;4.760;2022-08-19T09:14:28;21.00;99.90
27384;DHT22;14851;51.166;4.760;2022-08-19T09:17:00;20.90;99.90
27384;DHT22;14851;51.166;4.760;2022-08-19T09:19:29;20.70;99.90
27384;DHT22;14851;51.166;4.760;2022-08-19T09:21:56;20.80;99.90
27384;DHT22;14851;51.166;4.760;2022-08-19T09:24:22;20.90;99.90
27384;DHT22;14851;51.166;4.760;2022-08-19T09:26:48;20.70;99.90
27384;DHT22;14851;51.166;4.760;2022-08-19T09:29:14;20.70;99.90
27384;DHT22;14851;51.166;4.760;2022-08-19T09:31:42;20.70;99.90
27384;DHT22;14851;51.166;4.760;2022-08-19T09:34:08;21.20;99.90
27384;DHT22;14851;51.166;4.760;2022-08-19T09:36:34;21.00;99.90
27384;DHT22;14851;51.166;4.760;2022-08-19T09:39:05;20.60;99.90
27384;DHT22;14851;51.166;4.760;2022-08-19T09:41:32;20.60;99.90
27384;DHT22;14851;51.166;4.760;2022-08-19T09:44:00;20.40;99.90
27384;DHT22;14851;51.166;4.760;2022-08-19T09:46:28;20.30;99.90
27384;DHT22;14851;51.166;4.760;2022-08-19T09:48:54;20.20;99.90
27384;DHT22;14851;51.166;4.760;2022-08-19T09:51:25;20.40;99.90
27384;DHT22;14851;51.166;4.760;2022-08-19T09:53:54;20.80;99.90
27384;DHT22;14851;51.166;4.760;2022-08-19T09:56:22;20.70;99.90
27384;DHT22;14851;51.166;4.760;2022-08-19T09:58:48;20.80;99.90
27384;DHT22;14851;51.166;4.760;2022-08-19T10:01:23;20.70;99.90
27384;DHT22;14851;51.166;4.760;2022-08-19T10:03:52;20.80;99.90
27384;DHT22;14851;51.166;4.760;2022-08-19T10:06:23;20.70;99.90
27384;DHT22;14851;51.166;4.760;2022-08-19T10:08:51;20.50;99.90
27384;DHT22;14851;51.166;4.760;2022-08-19T10:11:18;20.50;99.90
27384;DHT22;14851;51.166;4.760;2022-08-19T10:13:45;20.80;99.90
27384;DHT22;14851;51.166;4.760;2022-08-19T10:16:16;20.90;99.90
27384;DHT22;14851;51.166;4.760;2022-08-19T10:18:45;20.90;99.90
27384;DHT22;14851;51.166;4.760;2022-08-19T10:21:21;20.80;99.90
27384;DHT22;14851;51.166;4.760;2022-08-19T10:23:53;20.70;99.90
27384;DHT22;14851;51.166;4.760;2022-08-19T10:26:25;20.80;99.90
27384;DHT22;14851;51.166;4.760;2022-08-19T10:28:52;20.80;99.90
27384;DHT22;14851;51.166;4.760;2022-08-19T10:31:21;21.30;99.90
27384;DHT22;14851;51.166;4.760;2022-08-19T10:33:49;21.50;99.90
27384;DHT22;14851;51.166;4.760;2022-08-19T10:36:21;21.40;99.90
27384;DHT22;14851;51.166;4.760;2022-08-19T10:38:52;21.40;99.90
27384;DHT22;14851;51.166;4.760;2022-08-19T10:41:24;21.20;99.90
27384;DHT22;14851;51.166;4.760;2022-08-19T10:43:54;21.40;99.90
27384;DHT22;14851;51.166;4.760;2022-08-19T10:46:21;21.40;99.90
27384;DHT22;14851;51.166;4.760;2022-08-19T10:48:49;21.40;99.90
27384;DHT22;14851;51.166;4.760;2022-08-19T10:51:16;21.30;99.90
27384;DHT22;14851;51.166;4.760;2022-08-19T10:54:01;21.60;99.90
27384;DHT22;14851;51.166;4.760;2022-08-19T10:56:28;21.70;99.90
27384;DHT22;14851;51.166;4.760;2022-08-19T10:59:13;21.50;99.90
27384;DHT22;14851;51.166;4.760;2022-08-19T11:01:41;21.50;99.90
27384;DHT22;14851;51.166;4.760;2022-08-19T11:04:10;21.40;99.90
27384;DHT22;14851;51.166;4.760;2022-08-19T11:06:37;21.70;99.90
27384;DHT22;14851;51.166;4.760;2022-08-19T11:09:05;22.00;99.90
27384;DHT22;14851;51.166;4.760;2022-08-19T11:11:31;21.90;99.90
27384;DHT22;14851;51.166;4.760;2022-08-19T11:13:58;22.00;99.90
27384;DHT22;14851;51.166;4.760;2022-08-19T11:16:26;21.90;99.90
27384;DHT22;14851;51.166;4.760;2022-08-19T11:18:57;22.00;99.90
27384;DHT22;14851;51.166;4.760;2022-08-19T11:21:30;21.80;99.90
27384;DHT22;14851;51.166;4.760;2022-08-19T11:24:00;22.00;99.90
27384;DHT22;14851;51.166;4.760;2022-08-19T11:26:28;22.10;99.90
27384;DHT22;14851;51.166;4.760;2022-08-19T11:28:58;21.90;99.90
27384;DHT22;14851;51.166;4.760;2022-08-19T11:31:27;21.80;99.90
27384;DHT22;14851;51.166;4.760;2022-08-19T11:33:58;21.70;99.90
27384;DHT22;14851;51.166;4.760;2022-08-19T11:36:26;22.00;99.90
27384;DHT22;14851;51.166;4.760;2022-08-19T11:38:53;21.90;99.90
27384;DHT22;14851;51.166;4.760;2022-08-19T11:41:20;21.80;99.90
27384;DHT22;14851;51.166;4.760;2022-08-19T11:43:49;21.80;99.90
27384;DHT22;14851;51.166;4.760;2022-08-19T11:46:17;21.90;99.90
27384;DHT22;14851;51.166;4.760;2022-08-19T11:48:43;21.90;99.90
27384;DHT22;14851;51.166;4.760;2022-08-19T11:51:13;21.90;99.90
27384;DHT22;14851;51.166;4.760;2022-08-19T11:53:41;22.10;99.90
27384;DHT22;14851;51.166;4.760;2022-08-19T11:56:08;22.30;99.90
27384;DHT22;14851;51.166;4.760;2022-08-19T11:58:35;22.30;99.90
27384;DHT22;14851;51.166;4.760;2022-08-19T12:01:08;22.40;99.90
27384;DHT22;14851;51.166;4.760;2022-08-19T12:03:37;22.40;99.90
27384;DHT22;14851;51.166;4.760;2022-08-19T12:06:09;22.40;99.90
27384;DHT22;14851;51.166;4.760;2022-08-19T12:08:35;22.40;99.90
27384;DHT22;14851;51.166;4.760;2022-08-19T12:11:02;22.40;99.90
27384;DHT22;14851;51.166;4.760;2022-08-19T12:13:29;22.40;99.90
27384;DHT22;14851;51.166;4.760;2022-08-19T12:16:01;22.30;99.90
27384;DHT22;14851;51.166;4.760;2022-08-19T12:18:32;22.30;99.90
27384;DHT22;14851;51.166;4.760;2022-08-19T12:20:58;22.40;99.90
27384;DHT22;14851;51.166;4.760;2022-08-19T12:23:25;22.40;99.90
27384;DHT22;14851;51.166;4.760;2022-08-19T12:25:51;22.40;99.90
27384;DHT22;14851;51.166;4.760;2022-08-19T12:28:19;22.40;99.90
27384;DHT22;14851;51.166;4.760;2022-08-19T12:30:45;22.60;99.90
27384;DHT22;14851;51.166;4.760;2022-08-19T12:33:11;22.70;99.90
27384;DHT22;14851;51.166;4.760;2022-08-19T12:35:41;22.70;99.90
27384;DHT22;14851;51.166;4.760;2022-08-19T12:38:08;22.60;99.90
27384;DHT22;14851;51.166;4.760;2022-08-19T12:40:34;22.70;99.90
27384;DHT22;14851;51.166;4.760;2022-08-19T12:43:02;22.70;99.90
27384;DHT22;14851;51.166;4.760;2022-08-19T12:45:28;22.70;99.90
27384;DHT22;14851;51.166;4.760;2022-08-19T12:47:55;22.80;99.90
27384;DHT22;14851;51.166;4.760;2022-08-19T12:50:22;22.80;99.90
27384;DHT22;14851;51.166;4.760;2022-08-19T12:52:49;22.80;99.90
27384;DHT22;14851;51.166;4.760;2022-08-19T12:55:18;22.80;99.90
27384;DHT22;14851;51.166;4.760;2022-08-19T12:57:48;22.90;99.90
27384;DHT22;14851;51.166;4.760;2022-08-19T13:00:19;23.00;99.90
27384;DHT22;14851;51.166;4.760;2022-08-19T13:02:49;23.00;99.90
27384;DHT22;14851;51.166;4.760;2022-08-19T13:05:24;23.00;99.90
27384;DHT22;14851;51.166;4.760;2022-08-19T13:07:51;23.00;99.90
27384;DHT22;14851;51.166;4.760;2022-08-19T13:10:20;22.90;99.90
27384;DHT22;14851;51.166;4.760;2022-08-19T13:12:51;22.90;99.90
27384;DHT22;14851;51.166;4.760;2022-08-19T13:15:20;22.90;99.90
27384;DHT22;14851;51.166;4.760;2022-08-19T13:17:48;23.00;99.90
27384;DHT22;14851;51.166;4.760;2022-08-19T13:20:17;23.00;99.90
27384;DHT22;14851;51.166;4.760;2022-08-19T13:22:45;23.00;99.90
27384;DHT22;14851;51.166;4.760;2022-08-19T13:25:14;23.00;99.90
27384;DHT22;14851;51.166;4.760;2022-08-19T13:27:43;23.10;99.90
27384;DHT22;14851;51.166;4.760;2022-08-19T13:30:10;23.10;99.90
27384;DHT22;14851;51.166;4.760;2022-08-19T13:32:56;23.10;99.90
27384;DHT22;14851;51.166;4.760;2022-08-19T13:35:50;23.10;99.90
27384;DHT22;14851;51.166;4.760;2022-08-19T13:38:20;23.10;99.90
27384;DHT22;14851;51.166;4.760;2022-08-19T13:40:47;23.10;99.90
27384;DHT22;14851;51.166;4.760;2022-08-19T13:43:16;23.20;99.90
27384;DHT22;14851;51.166;4.760;2022-08-19T13:45:45;23.20;99.90
27384;DHT22;14851;51.166;4.760;2022-08-19T13:48:15;23.20;99.90
27384;DHT22;14851;51.166;4.760;2022-08-19T13:50:44;23.20;99.90
27384;DHT22;14851;51.166;4.760;2022-08-19T13:53:13;23.30;99.90
27384;DHT22;14851;51.166;4.760;2022-08-19T13:55:41;23.30;99.90
27384;DHT22;14851;51.166;4.760;2022-08-19T13:58:11;23.40;99.90
27384;DHT22;14851;51.166;4.760;2022-08-19T14:00:41;23.40;99.90
27384;DHT22;14851;51.166;4.760;2022-08-19T14:03:08;23.40;99.90
27384;DHT22;14851;51.166;4.760;2022-08-19T14:05:36;23.60;99.90
27384;DHT22;14851;51.166;4.760;2022-08-19T14:08:05;23.60;99.90
27384;DHT22;14851;51.166;4.760;2022-08-19T14:10:32;23.60;99.90
27384;DHT22;14851;51.166;4.760;2022-08-19T14:13:01;23.50;99.90
27384;DHT22;14851;51.166;4.760;2022-08-19T14:15:29;23.70;99.90
27384;DHT22;14851;51.166;4.760;2022-08-19T14:17:55;23.80;99.90
27384;DHT22;14851;51.166;4.760;2022-08-19T14:20:23;23.80;99.90
27384;DHT22;14851;51.166;4.760;2022-08-19T14:22:50;23.80;99.90
27384;DHT22;14851;51.166;4.760;2022-08-19T14:25:23;23.80;99.90
27384;DHT22;14851;51.166;4.760;2022-08-19T14:27:53;23.80;99.90
27384;DHT22;14851;51.166;4.760;2022-08-19T14:30:26;24.00;99.90
27384;DHT22;14851;51.166;4.760;2022-08-19T14:32:56;24.20;99.90
27384;DHT22;14851;51.166;4.760;2022-08-19T14:35:25;24.30;99.90
27384;DHT22;14851;51.166;4.760;2022-08-19T14:37:54;24.30;99.90
27384;DHT22;14851;51.166;4.760;2022-08-19T14:40:27;24.20;99.90
27384;DHT22;14851;51.166;4.760;2022-08-19T14:42:56;24.20;99.90
27384;DHT22;14851;51.166;4.760;2022-08-19T14:45:29;24.30;99.90
27384;DHT22;14851;51.166;4.760;2022-08-19T14:47:55;24.50;99.90
27384;DHT22;14851;51.166;4.760;2022-08-19T14:50:22;24.40;99.90
27384;DHT22;14851;51.166;4.760;2022-08-19T14:53:01;24.40;99.90
27384;DHT22;14851;51.166;4.760;2022-08-19T14:55:30;24.30;99.90
27384;DHT22;14851;51.166;4.760;2022-08-19T14:57:59;24.30;99.90
27384;DHT22;14851;51.166;4.760;2022-08-19T15:00:26;24.20;99.90
27384;DHT22;14851;51.166;4.760;2022-08-19T15:02:53;24.20;99.90
27384;DHT22;14851;51.166;4.760;2022-08-19T15:05:21;24.20;99.90
27384;DHT22;14851;51.166;4.760;2022-08-19T15:07:47;24.00;99.90
27384;DHT22;14851;51.166;4.760;2022-08-19T15:10:14;24.10;99.90
27384;DHT22;14851;51.166;4.760;2022-08-19T15:12:43;24.30;99.90
27384;DHT22;14851;51.166;4.760;2022-08-19T15:15:13;24.40;99.90
27384;DHT22;14851;51.166;4.760;2022-08-19T15:17:41;24.20;99.90
27384;DHT22;14851;51.166;4.760;2022-08-19T15:20:09;24.00;99.90
27384;DHT22;14851;51.166;4.760;2022-08-19T15:22:38;24.00;99.90
27384;DHT22;14851;51.166;4.760;2022-08-19T15:25:07;24.00;99.90
27384;DHT22;14851;51.166;4.760;2022-08-19T15:27:37;23.90;99.90
27384;DHT22;14851;51.166;4.760;2022-08-19T15:30:06;23.50;99.90
27384;DHT22;14851;51.166;4.760;2022-08-19T15:32:37;23.10;99.90
27384;DHT22;14851;51.166;4.760;2022-08-19T15:35:06;22.80;99.90
27384;DHT22;14851;51.166;4.760;2022-08-19T15:37:32;22.80;99.90
27384;DHT22;14851;51.166;4.760;2022-08-19T15:40:02;22.70;99.90
27384;DHT22;14851;51.166;4.760;2022-08-19T15:42:29;22.60;99.90
27384;DHT22;14851;51.166;4.760;2022-08-19T15:44:56;22.40;99.90
27384;DHT22;14851;51.166;4.760;2022-08-19T15:47:22;22.30;99.90
27384;DHT22;14851;51.166;4.760;2022-08-19T15:49:50;22.10;99.90
27384;DHT22;14851;51.166;4.760;2022-08-19T15:52:20;22.30;99.90
27384;DHT22;14851;51.166;4.760;2022-08-19T15:54:46;22.30;99.90